sensor_id;sensor_type;location;lat;lon;timestamp;P1;durP1;ratioP1;P2;durP2;ratioP2
35550;SDS011;21655;46.056;13.616;2023-07-13T00:00:27;16.45;;;4.63;;
35550;SDS011;21655;46.056;13.616;2023-07-13T00:02:53;10.15;;;4.60;;
35550;SDS011;21655;46.056;13.616;2023-07-13T00:05:22;10.82;;;4.30;;
35550;SDS011;21655;46.056;13.616;2023-07-13T00:07:48;16.65;;;4.45;;
35550;SDS011;21655;46.056;13.616;2023-07-13T00:10:17;18.08;;;4.30;;
35550;SDS011;21655;46.056;13.616;2023-07-13T00:12:43;9.93;;;4.40;;
35550;SDS011;21655;46.056;13.616;2023-07-13T00:15:19;11.15;;;4.22;;
35550;SDS011;21655;46.056;13.616;2023-07-13T00:17:47;16.13;;;4.40;;
35550;SDS011;21655;46.056;13.616;2023-07-13T00:20:13;13.80;;;3.92;;
35550;SDS011;21655;46.056;13.616;2023-07-13T00:22:38;5.82;;;1.73;;
35550;SDS011;21655;46.056;13.616;2023-07-13T00:25:04;5.25;;;1.73;;
35550;SDS011;21655;46.056;13.616;2023-07-13T00:27:30;6.00;;;1.42;;
35550;SDS011;21655;46.056;13.616;2023-07-13T00:29:57;11.43;;;1.88;;
35550;SDS011;21655;46.056;13.616;2023-07-13T00:32:23;3.15;;;1.15;;
35550;SDS011;21655;46.056;13.616;2023-07-13T00:34:52;3.85;;;1.10;;
35550;SDS011;21655;46.056;13.616;2023-07-13T00:37:17;5.00;;;1.30;;
35550;SDS011;21655;46.056;13.616;2023-07-13T00:39:43;6.93;;;1.50;;
35550;SDS011;21655;46.056;13.616;2023-07-13T00:42:08;6.38;;;1.58;;
35550;SDS011;21655;46.056;13.616;2023-07-13T00:44:34;4.40;;;1.25;;
35550;SDS011;21655;46.056;13.616;2023-07-13T00:47:00;2.92;;;1.33;;
35550;SDS011;21655;46.056;13.616;2023-07-13T00:49:26;3.05;;;1.10;;
35550;SDS011;21655;46.056;13.616;2023-07-13T00:52:05;6.60;;;1.48;;
35550;SDS011;21655;46.056;13.616;2023-07-13T00:54:33;2.40;;;1.10;;
35550;SDS011;21655;46.056;13.616;2023-07-13T00:57:05;5.63;;;1.25;;
35550;SDS011;21655;46.056;13.616;2023-07-13T00:59:34;5.60;;;1.63;;
35550;SDS011;21655;46.056;13.616;2023-07-13T01:02:01;17.05;;;3.97;;
35550;SDS011;21655;46.056;13.616;2023-07-13T01:04:28;18.92;;;3.70;;
35550;SDS011;21655;46.056;13.616;2023-07-13T01:06:53;14.40;;;3.17;;
35550;SDS011;21655;46.056;13.616;2023-07-13T01:09:19;9.60;;;2.80;;
35550;SDS011;21655;46.056;13.616;2023-07-13T01:11:46;11.88;;;2.47;;
35550;SDS011;21655;46.056;13.616;2023-07-13T01:14:12;4.68;;;2.08;;
35550;SDS011;21655;46.056;13.616;2023-07-13T01:16:37;6.07;;;2.10;;
35550;SDS011;21655;46.056;13.616;2023-07-13T01:19:19;6.78;;;2.00;;
35550;SDS011;21655;46.056;13.616;2023-07-13T01:22:01;6.28;;;2.22;;
35550;SDS011;21655;46.056;13.616;2023-07-13T01:24:27;7.38;;;2.17;;
35550;SDS011;21655;46.056;13.616;2023-07-13T01:26:54;6.97;;;1.90;;
35550;SDS011;21655;46.056;13.616;2023-07-13T01:29:19;12.02;;;2.70;;
35550;SDS011;21655;46.056;13.616;2023-07-13T01:31:45;7.72;;;2.40;;
35550;SDS011;21655;46.056;13.616;2023-07-13T01:34:11;6.45;;;1.83;;
35550;SDS011;21655;46.056;13.616;2023-07-13T01:36:36;6.63;;;2.08;;
35550;SDS011;21655;46.056;13.616;2023-07-13T01:39:02;8.48;;;2.33;;
35550;SDS011;21655;46.056;13.616;2023-07-13T01:41:28;10.38;;;1.98;;
35550;SDS011;21655;46.056;13.616;2023-07-13T01:43:54;12.93;;;2.67;;
35550;SDS011;21655;46.056;13.616;2023-07-13T01:46:19;11.07;;;2.28;;
35550;SDS011;21655;46.056;13.616;2023-07-13T01:48:44;14.32;;;3.25;;
35550;SDS011;21655;46.056;13.616;2023-07-13T01:51:10;6.70;;;2.30;;
35550;SDS011;21655;46.056;13.616;2023-07-13T01:53:36;9.43;;;2.72;;
35550;SDS011;21655;46.056;13.616;2023-07-13T01:56:01;9.98;;;2.72;;
35550;SDS011;21655;46.056;13.616;2023-07-13T01:58:27;6.13;;;2.13;;
35550;SDS011;21655;46.056;13.616;2023-07-13T02:00:52;7.80;;;1.75;;
35550;SDS011;21655;46.056;13.616;2023-07-13T02:03:18;7.93;;;1.98;;
35550;SDS011;21655;46.056;13.616;2023-07-13T02:05:44;9.63;;;2.05;;
35550;SDS011;21655;46.056;13.616;2023-07-13T02:08:10;10.35;;;2.92;;
35550;SDS011;21655;46.056;13.616;2023-07-13T02:10:36;5.07;;;2.05;;
35550;SDS011;21655;46.056;13.616;2023-07-13T02:13:02;5.53;;;2.33;;
35550;SDS011;21655;46.056;13.616;2023-07-13T02:15:29;7.22;;;2.10;;
35550;SDS011;21655;46.056;13.616;2023-07-13T02:17:54;10.63;;;2.53;;
35550;SDS011;21655;46.056;13.616;2023-07-13T02:20:20;6.80;;;2.63;;
35550;SDS011;21655;46.056;13.616;2023-07-13T02:22:45;10.13;;;2.45;;
35550;SDS011;21655;46.056;13.616;2023-07-13T02:25:11;5.88;;;1.85;;
35550;SDS011;21655;46.056;13.616;2023-07-13T02:27:36;6.53;;;2.15;;
35550;SDS011;21655;46.056;13.616;2023-07-13T02:30:02;9.15;;;2.15;;
35550;SDS011;21655;46.056;13.616;2023-07-13T02:32:28;9.20;;;2.30;;
35550;SDS011;21655;46.056;13.616;2023-07-13T02:34:53;9.60;;;2.22;;
35550;SDS011;21655;46.056;13.616;2023-07-13T02:37:19;11.32;;;2.80;;
35550;SDS011;21655;46.056;13.616;2023-07-13T02:39:46;6.00;;;2.22;;
35550;SDS011;21655;46.056;13.616;2023-07-13T02:42:13;9.80;;;2.47;;
35550;SDS011;21655;46.056;13.616;2023-07-13T02:44:38;9.07;;;2.20;;
35550;SDS011;21655;46.056;13.616;2023-07-13T02:47:04;9.27;;;2.40;;
35550;SDS011;21655;46.056;13.616;2023-07-13T02:49:29;10.00;;;1.90;;
35550;SDS011;21655;46.056;13.616;2023-07-13T02:51:55;6.05;;;1.73;;
35550;SDS011;21655;46.056;13.616;2023-07-13T02:54:20;4.60;;;1.95;;
35550;SDS011;21655;46.056;13.616;2023-07-13T02:56:45;9.93;;;2.38;;
35550;SDS011;21655;46.056;13.616;2023-07-13T02:59:11;6.68;;;2.05;;
35550;SDS011;21655;46.056;13.616;2023-07-13T03:01:37;10.73;;;2.30;;
35550;SDS011;21655;46.056;13.616;2023-07-13T03:04:03;11.57;;;2.45;;
35550;SDS011;21655;46.056;13.616;2023-07-13T03:06:30;8.82;;;2.70;;
35550;SDS011;21655;46.056;13.616;2023-07-13T03:08:56;11.25;;;2.30;;
35550;SDS011;21655;46.056;13.616;2023-07-13T03:11:21;5.47;;;1.95;;
35550;SDS011;21655;46.056;13.616;2023-07-13T03:13:47;8.05;;;2.10;;
35550;SDS011;21655;46.056;13.616;2023-07-13T03:16:14;11.23;;;2.45;;
35550;SDS011;21655;46.056;13.616;2023-07-13T03:18:43;8.93;;;2.40;;
35550;SDS011;21655;46.056;13.616;2023-07-13T03:21:09;8.27;;;2.80;;
35550;SDS011;21655;46.056;13.616;2023-07-13T03:23:35;7.40;;;2.38;;
35550;SDS011;21655;46.056;13.616;2023-07-13T03:26:01;9.30;;;2.13;;
35550;SDS011;21655;46.056;13.616;2023-07-13T03:28:27;6.93;;;2.17;;
35550;SDS011;21655;46.056;13.616;2023-07-13T03:31:09;5.40;;;2.10;;
35550;SDS011;21655;46.056;13.616;2023-07-13T03:36:03;9.40;;;2.08;;
35550;SDS011;21655;46.056;13.616;2023-07-13T03:38:29;11.15;;;2.40;;
35550;SDS011;21655;46.056;13.616;2023-07-13T03:40:55;7.78;;;2.50;;
35550;SDS011;21655;46.056;13.616;2023-07-13T03:43:20;10.07;;;2.33;;
35550;SDS011;21655;46.056;13.616;2023-07-13T03:45:46;7.00;;;2.15;;
35550;SDS011;21655;46.056;13.616;2023-07-13T03:48:12;8.38;;;2.20;;
35550;SDS011;21655;46.056;13.616;2023-07-13T03:50:37;12.02;;;2.20;;
35550;SDS011;21655;46.056;13.616;2023-07-13T03:53:03;5.65;;;2.00;;
35550;SDS011;21655;46.056;13.616;2023-07-13T03:55:29;8.10;;;2.08;;
35550;SDS011;21655;46.056;13.616;2023-07-13T03:57:57;8.73;;;2.10;;
35550;SDS011;21655;46.056;13.616;2023-07-13T04:00:24;8.95;;;2.45;;
35550;SDS011;21655;46.056;13.616;2023-07-13T04:02:50;7.50;;;2.10;;
35550;SDS011;21655;46.056;13.616;2023-07-13T04:05:16;7.88;;;2.30;;
35550;SDS011;21655;46.056;13.616;2023-07-13T04:07:42;9.10;;;2.28;;
35550;SDS011;21655;46.056;13.616;2023-07-13T04:10:08;9.82;;;2.25;;
35550;SDS011;21655;46.056;13.616;2023-07-13T04:12:34;7.30;;;2.13;;
35550;SDS011;21655;46.056;13.616;2023-07-13T04:14:59;10.10;;;2.47;;
35550;SDS011;21655;46.056;13.616;2023-07-13T04:17:25;5.30;;;2.08;;
35550;SDS011;21655;46.056;13.616;2023-07-13T04:19:50;8.25;;;2.08;;
35550;SDS011;21655;46.056;13.616;2023-07-13T04:22:16;9.88;;;2.40;;
35550;SDS011;21655;46.056;13.616;2023-07-13T04:24:41;9.27;;;2.10;;
35550;SDS011;21655;46.056;13.616;2023-07-13T04:27:06;9.63;;;2.00;;
35550;SDS011;21655;46.056;13.616;2023-07-13T04:29:32;7.32;;;2.08;;
35550;SDS011;21655;46.056;13.616;2023-07-13T04:31:58;8.20;;;2.30;;
35550;SDS011;21655;46.056;13.616;2023-07-13T04:34:23;7.15;;;1.98;;
35550;SDS011;21655;46.056;13.616;2023-07-13T04:36:49;6.32;;;1.80;;
35550;SDS011;21655;46.056;13.616;2023-07-13T04:39:15;9.45;;;2.20;;
35550;SDS011;21655;46.056;13.616;2023-07-13T04:41:40;6.28;;;2.35;;
35550;SDS011;21655;46.056;13.616;2023-07-13T04:44:06;6.63;;;2.25;;
35550;SDS011;21655;46.056;13.616;2023-07-13T04:46:31;5.35;;;1.88;;
35550;SDS011;21655;46.056;13.616;2023-07-13T04:48:56;7.78;;;1.63;;
35550;SDS011;21655;46.056;13.616;2023-07-13T04:51:23;9.15;;;2.22;;
35550;SDS011;21655;46.056;13.616;2023-07-13T04:53:49;5.30;;;1.88;;
35550;SDS011;21655;46.056;13.616;2023-07-13T04:56:14;7.18;;;2.35;;
35550;SDS011;21655;46.056;13.616;2023-07-13T04:58:40;6.80;;;1.90;;
35550;SDS011;21655;46.056;13.616;2023-07-13T05:01:05;8.15;;;2.20;;
35550;SDS011;21655;46.056;13.616;2023-07-13T05:03:31;6.78;;;1.98;;
35550;SDS011;21655;46.056;13.616;2023-07-13T05:06:03;7.18;;;2.10;;
35550;SDS011;21655;46.056;13.616;2023-07-13T05:08:31;8.13;;;1.85;;
35550;SDS011;21655;46.056;13.616;2023-07-13T05:10:56;6.38;;;1.95;;
35550;SDS011;21655;46.056;13.616;2023-07-13T05:13:24;7.05;;;1.70;;
35550;SDS011;21655;46.056;13.616;2023-07-13T05:16:00;7.28;;;1.60;;
35550;SDS011;21655;46.056;13.616;2023-07-13T05:18:31;7.13;;;1.60;;
35550;SDS011;21655;46.056;13.616;2023-07-13T05:21:01;6.85;;;1.90;;
35550;SDS011;21655;46.056;13.616;2023-07-13T05:23:29;6.70;;;1.83;;
35550;SDS011;21655;46.056;13.616;2023-07-13T05:25:55;5.75;;;1.75;;
35550;SDS011;21655;46.056;13.616;2023-07-13T05:28:21;4.32;;;1.70;;
35550;SDS011;21655;46.056;13.616;2023-07-13T05:30:47;6.28;;;1.63;;
35550;SDS011;21655;46.056;13.616;2023-07-13T05:33:14;10.75;;;2.10;;
35550;SDS011;21655;46.056;13.616;2023-07-13T05:35:39;6.43;;;1.92;;
35550;SDS011;21655;46.056;13.616;2023-07-13T05:38:05;10.38;;;1.67;;
35550;SDS011;21655;46.056;13.616;2023-07-13T05:40:31;3.40;;;1.30;;
35550;SDS011;21655;46.056;13.616;2023-07-13T05:42:56;8.90;;;1.90;;
35550;SDS011;21655;46.056;13.616;2023-07-13T05:45:22;4.90;;;1.60;;
35550;SDS011;21655;46.056;13.616;2023-07-13T05:47:47;9.13;;;1.40;;
35550;SDS011;21655;46.056;13.616;2023-07-13T05:50:13;5.13;;;1.83;;
35550;SDS011;21655;46.056;13.616;2023-07-13T05:52:38;12.32;;;1.83;;
35550;SDS011;21655;46.056;13.616;2023-07-13T05:55:04;9.15;;;1.60;;
35550;SDS011;21655;46.056;13.616;2023-07-13T05:57:30;9.40;;;2.03;;
35550;SDS011;21655;46.056;13.616;2023-07-13T05:59:55;3.55;;;1.50;;
35550;SDS011;21655;46.056;13.616;2023-07-13T06:02:21;9.32;;;1.90;;
35550;SDS011;21655;46.056;13.616;2023-07-13T06:04:46;9.35;;;1.98;;
35550;SDS011;21655;46.056;13.616;2023-07-13T06:07:11;5.95;;;1.90;;
35550;SDS011;21655;46.056;13.616;2023-07-13T06:09:37;4.93;;;1.52;;
35550;SDS011;21655;46.056;13.616;2023-07-13T06:12:03;5.63;;;2.00;;
35550;SDS011;21655;46.056;13.616;2023-07-13T06:14:29;8.90;;;1.65;;
35550;SDS011;21655;46.056;13.616;2023-07-13T06:16:55;7.13;;;1.90;;
35550;SDS011;21655;46.056;13.616;2023-07-13T06:19:21;5.28;;;1.63;;
35550;SDS011;21655;46.056;13.616;2023-07-13T06:21:46;4.75;;;1.40;;
35550;SDS011;21655;46.056;13.616;2023-07-13T06:24:11;10.00;;;1.60;;
35550;SDS011;21655;46.056;13.616;2023-07-13T06:26:37;11.48;;;2.03;;
35550;SDS011;21655;46.056;13.616;2023-07-13T06:29:02;15.43;;;1.75;;
35550;SDS011;21655;46.056;13.616;2023-07-13T06:31:28;7.03;;;1.73;;
35550;SDS011;21655;46.056;13.616;2023-07-13T06:33:53;5.60;;;1.58;;
35550;SDS011;21655;46.056;13.616;2023-07-13T06:36:18;9.00;;;1.58;;
35550;SDS011;21655;46.056;13.616;2023-07-13T06:38:44;5.63;;;1.70;;
35550;SDS011;21655;46.056;13.616;2023-07-13T06:41:10;6.65;;;1.60;;
35550;SDS011;21655;46.056;13.616;2023-07-13T06:43:35;4.88;;;1.65;;
35550;SDS011;21655;46.056;13.616;2023-07-13T06:46:01;11.52;;;2.20;;
35550;SDS011;21655;46.056;13.616;2023-07-13T06:48:26;6.75;;;1.77;;
35550;SDS011;21655;46.056;13.616;2023-07-13T06:50:53;7.55;;;1.63;;
35550;SDS011;21655;46.056;13.616;2023-07-13T06:53:19;8.65;;;1.85;;
35550;SDS011;21655;46.056;13.616;2023-07-13T06:55:45;6.38;;;1.92;;
35550;SDS011;21655;46.056;13.616;2023-07-13T06:58:11;7.55;;;1.90;;
35550;SDS011;21655;46.056;13.616;2023-07-13T07:00:37;5.93;;;1.50;;
35550;SDS011;21655;46.056;13.616;2023-07-13T07:03:05;10.23;;;1.40;;
35550;SDS011;21655;46.056;13.616;2023-07-13T07:05:30;7.68;;;1.70;;
35550;SDS011;21655;46.056;13.616;2023-07-13T07:07:55;7.18;;;1.85;;
35550;SDS011;21655;46.056;13.616;2023-07-13T07:10:21;10.45;;;1.80;;
35550;SDS011;21655;46.056;13.616;2023-07-13T07:12:47;6.68;;;1.55;;
35550;SDS011;21655;46.056;13.616;2023-07-13T07:15:13;10.25;;;2.38;;
35550;SDS011;21655;46.056;13.616;2023-07-13T07:17:39;7.35;;;1.65;;
35550;SDS011;21655;46.056;13.616;2023-07-13T07:20:04;6.30;;;1.63;;
35550;SDS011;21655;46.056;13.616;2023-07-13T07:22:31;98.85;;;7.10;;
35550;SDS011;21655;46.056;13.616;2023-07-13T07:24:57;9.10;;;1.55;;
35550;SDS011;21655;46.056;13.616;2023-07-13T07:27:22;8.68;;;1.88;;
35550;SDS011;21655;46.056;13.616;2023-07-13T07:29:48;8.70;;;1.73;;
35550;SDS011;21655;46.056;13.616;2023-07-13T07:32:14;9.05;;;1.83;;
35550;SDS011;21655;46.056;13.616;2023-07-13T07:34:39;7.72;;;1.80;;
35550;SDS011;21655;46.056;13.616;2023-07-13T07:37:05;5.45;;;1.70;;
35550;SDS011;21655;46.056;13.616;2023-07-13T07:39:31;6.88;;;1.60;;
35550;SDS011;21655;46.056;13.616;2023-07-13T07:41:56;7.97;;;1.60;;
35550;SDS011;21655;46.056;13.616;2023-07-13T07:44:22;11.70;;;1.63;;
35550;SDS011;21655;46.056;13.616;2023-07-13T07:46:48;4.30;;;1.45;;
35550;SDS011;21655;46.056;13.616;2023-07-13T07:49:14;7.75;;;1.70;;
35550;SDS011;21655;46.056;13.616;2023-07-13T07:51:39;6.68;;;1.50;;
35550;SDS011;21655;46.056;13.616;2023-07-13T07:54:05;5.97;;;1.67;;
35550;SDS011;21655;46.056;13.616;2023-07-13T07:56:31;10.20;;;1.80;;
35550;SDS011;21655;46.056;13.616;2023-07-13T07:58:57;7.05;;;1.58;;
35550;SDS011;21655;46.056;13.616;2023-07-13T08:01:22;5.32;;;1.48;;
35550;SDS011;21655;46.056;13.616;2023-07-13T08:03:48;4.88;;;1.58;;
35550;SDS011;21655;46.056;13.616;2023-07-13T08:06:14;7.95;;;1.60;;
35550;SDS011;21655;46.056;13.616;2023-07-13T08:08:39;7.75;;;1.80;;
35550;SDS011;21655;46.056;13.616;2023-07-13T08:11:05;7.18;;;1.80;;
35550;SDS011;21655;46.056;13.616;2023-07-13T08:13:32;6.90;;;1.83;;
35550;SDS011;21655;46.056;13.616;2023-07-13T08:15:58;6.63;;;1.73;;
35550;SDS011;21655;46.056;13.616;2023-07-13T08:18:23;6.35;;;1.80;;
35550;SDS011;21655;46.056;13.616;2023-07-13T08:20:49;6.97;;;1.60;;
35550;SDS011;21655;46.056;13.616;2023-07-13T08:23:14;6.40;;;1.67;;
35550;SDS011;21655;46.056;13.616;2023-07-13T08:25:41;7.97;;;1.98;;
35550;SDS011;21655;46.056;13.616;2023-07-13T08:28:07;4.05;;;1.45;;
35550;SDS011;21655;46.056;13.616;2023-07-13T08:30:32;3.55;;;1.80;;
35550;SDS011;21655;46.056;13.616;2023-07-13T08:32:58;7.32;;;1.88;;
35550;SDS011;21655;46.056;13.616;2023-07-13T08:35:23;6.25;;;1.70;;
35550;SDS011;21655;46.056;13.616;2023-07-13T08:37:50;8.52;;;1.95;;
35550;SDS011;21655;46.056;13.616;2023-07-13T08:40:16;9.77;;;1.60;;
35550;SDS011;21655;46.056;13.616;2023-07-13T08:42:45;5.32;;;1.80;;
35550;SDS011;21655;46.056;13.616;2023-07-13T08:48:05;4.95;;;1.70;;
35550;SDS011;21655;46.056;13.616;2023-07-13T08:50:53;6.80;;;1.92;;
35550;SDS011;21655;46.056;13.616;2023-07-13T08:53:45;5.25;;;1.60;;
35550;SDS011;21655;46.056;13.616;2023-07-13T08:56:18;5.90;;;2.00;;
35550;SDS011;21655;46.056;13.616;2023-07-13T08:58:47;5.82;;;1.75;;
35550;SDS011;21655;46.056;13.616;2023-07-13T09:01:21;6.63;;;1.73;;
35550;SDS011;21655;46.056;13.616;2023-07-13T09:04:04;7.90;;;1.70;;
35550;SDS011;21655;46.056;13.616;2023-07-13T09:17:41;8.32;;;2.00;;
35550;SDS011;21655;46.056;13.616;2023-07-13T09:22:53;9.25;;;1.80;;
35550;SDS011;21655;46.056;13.616;2023-07-13T09:25:34;8.82;;;2.30;;
35550;SDS011;21655;46.056;13.616;2023-07-13T09:33:51;5.97;;;1.85;;
35550;SDS011;21655;46.056;13.616;2023-07-13T09:38:44;6.70;;;2.50;;
35550;SDS011;21655;46.056;13.616;2023-07-13T09:46:37;7.28;;;1.85;;
35550;SDS011;21655;46.056;13.616;2023-07-13T09:49:04;6.85;;;1.95;;
35550;SDS011;21655;46.056;13.616;2023-07-13T09:51:29;5.78;;;1.90;;
35550;SDS011;21655;46.056;13.616;2023-07-13T09:53:55;4.13;;;1.85;;
35550;SDS011;21655;46.056;13.616;2023-07-13T09:56:22;10.60;;;1.88;;
35550;SDS011;21655;46.056;13.616;2023-07-13T09:58:49;5.70;;;2.15;;
35550;SDS011;21655;46.056;13.616;2023-07-13T10:01:15;7.78;;;2.03;;
35550;SDS011;21655;46.056;13.616;2023-07-13T10:03:51;6.45;;;1.98;;
35550;SDS011;21655;46.056;13.616;2023-07-13T10:06:19;7.50;;;2.00;;
35550;SDS011;21655;46.056;13.616;2023-07-13T10:08:51;5.60;;;1.70;;
35550;SDS011;21655;46.056;13.616;2023-07-13T10:11:21;12.15;;;2.50;;
35550;SDS011;21655;46.056;13.616;2023-07-13T10:16:46;9.38;;;2.25;;
35550;SDS011;21655;46.056;13.616;2023-07-13T10:24:23;5.25;;;1.67;;
35550;SDS011;21655;46.056;13.616;2023-07-13T10:26:57;6.00;;;1.92;;
35550;SDS011;21655;46.056;13.616;2023-07-13T10:29:24;4.03;;;1.70;;
35550;SDS011;21655;46.056;13.616;2023-07-13T10:31:52;8.52;;;1.92;;
35550;SDS011;21655;46.056;13.616;2023-07-13T10:34:18;6.93;;;1.83;;
35550;SDS011;21655;46.056;13.616;2023-07-13T10:36:45;7.40;;;1.80;;
35550;SDS011;21655;46.056;13.616;2023-07-13T10:39:18;4.40;;;1.90;;
35550;SDS011;21655;46.056;13.616;2023-07-13T10:41:48;10.43;;;2.20;;
35550;SDS011;21655;46.056;13.616;2023-07-13T10:44:19;8.10;;;2.10;;
35550;SDS011;21655;46.056;13.616;2023-07-13T10:46:57;8.20;;;1.60;;
35550;SDS011;21655;46.056;13.616;2023-07-13T10:49:26;9.43;;;2.13;;
35550;SDS011;21655;46.056;13.616;2023-07-13T10:51:53;7.80;;;2.00;;
35550;SDS011;21655;46.056;13.616;2023-07-13T10:59:31;10.45;;;2.40;;
35550;SDS011;21655;46.056;13.616;2023-07-13T11:04:53;8.07;;;1.95;;
35550;SDS011;21655;46.056;13.616;2023-07-13T11:07:51;5.32;;;2.15;;
35550;SDS011;21655;46.056;13.616;2023-07-13T11:18:49;5.80;;;2.15;;
35550;SDS011;21655;46.056;13.616;2023-07-13T11:21:23;8.43;;;2.20;;
35550;SDS011;21655;46.056;13.616;2023-07-13T11:23:52;7.55;;;2.50;;
35550;SDS011;21655;46.056;13.616;2023-07-13T11:29:24;7.50;;;2.40;;
35550;SDS011;21655;46.056;13.616;2023-07-13T11:31:58;10.93;;;2.58;;
35550;SDS011;21655;46.056;13.616;2023-07-13T11:36:57;9.88;;;2.50;;
35550;SDS011;21655;46.056;13.616;2023-07-13T11:39:29;5.68;;;2.63;;
35550;SDS011;21655;46.056;13.616;2023-07-13T11:41:59;7.72;;;2.65;;
35550;SDS011;21655;46.056;13.616;2023-07-13T11:44:27;12.52;;;3.80;;
35550;SDS011;21655;46.056;13.616;2023-07-13T11:46:55;6.88;;;3.80;;
35550;SDS011;21655;46.056;13.616;2023-07-13T11:49:25;15.57;;;4.55;;
35550;SDS011;21655;46.056;13.616;2023-07-13T11:51:54;10.35;;;4.35;;
35550;SDS011;21655;46.056;13.616;2023-07-13T11:57:00;11.77;;;4.40;;
35550;SDS011;21655;46.056;13.616;2023-07-13T11:59:45;9.40;;;3.80;;
35550;SDS011;21655;46.056;13.616;2023-07-13T12:02:15;13.95;;;4.72;;
35550;SDS011;21655;46.056;13.616;2023-07-13T12:04:50;7.70;;;3.90;;
35550;SDS011;21655;46.056;13.616;2023-07-13T12:07:17;13.00;;;3.90;;
35550;SDS011;21655;46.056;13.616;2023-07-13T12:09:44;11.38;;;3.75;;
35550;SDS011;21655;46.056;13.616;2023-07-13T12:12:11;11.07;;;3.67;;
35550;SDS011;21655;46.056;13.616;2023-07-13T12:14:43;14.05;;;3.70;;
35550;SDS011;21655;46.056;13.616;2023-07-13T12:17:11;8.15;;;3.55;;
35550;SDS011;21655;46.056;13.616;2023-07-13T12:19:41;11.05;;;3.55;;
35550;SDS011;21655;46.056;13.616;2023-07-13T12:22:08;9.52;;;3.78;;
35550;SDS011;21655;46.056;13.616;2023-07-13T12:24:36;12.15;;;4.57;;
35550;SDS011;21655;46.056;13.616;2023-07-13T12:27:03;11.27;;;4.43;;
35550;SDS011;21655;46.056;13.616;2023-07-13T12:29:30;11.93;;;3.83;;
35550;SDS011;21655;46.056;13.616;2023-07-13T12:31:57;12.23;;;4.45;;
35550;SDS011;21655;46.056;13.616;2023-07-13T12:34:24;7.68;;;4.03;;
35550;SDS011;21655;46.056;13.616;2023-07-13T12:36:55;10.25;;;3.70;;
35550;SDS011;21655;46.056;13.616;2023-07-13T12:39:26;10.85;;;3.80;;
35550;SDS011;21655;46.056;13.616;2023-07-13T12:42:14;11.20;;;3.83;;
35550;SDS011;21655;46.056;13.616;2023-07-13T12:45:17;9.05;;;4.03;;
35550;SDS011;21655;46.056;13.616;2023-07-13T12:47:42;12.25;;;4.75;;
35550;SDS011;21655;46.056;13.616;2023-07-13T12:50:12;11.25;;;3.90;;
35550;SDS011;21655;46.056;13.616;2023-07-13T12:52:53;11.70;;;3.90;;
35550;SDS011;21655;46.056;13.616;2023-07-13T12:55:21;12.52;;;4.32;;
35550;SDS011;21655;46.056;13.616;2023-07-13T12:57:54;10.45;;;3.80;;
35550;SDS011;21655;46.056;13.616;2023-07-13T13:00:23;8.10;;;3.40;;
35550;SDS011;21655;46.056;13.616;2023-07-13T13:02:52;12.45;;;3.65;;
35550;SDS011;21655;46.056;13.616;2023-07-13T13:05:21;10.40;;;4.05;;
35550;SDS011;21655;46.056;13.616;2023-07-13T13:07:48;6.95;;;3.50;;
35550;SDS011;21655;46.056;13.616;2023-07-13T13:10:14;13.45;;;3.70;;
35550;SDS011;21655;46.056;13.616;2023-07-13T13:12:40;8.43;;;3.85;;
35550;SDS011;21655;46.056;13.616;2023-07-13T13:15:09;10.07;;;3.97;;
35550;SDS011;21655;46.056;13.616;2023-07-13T13:17:36;8.82;;;3.90;;
35550;SDS011;21655;46.056;13.616;2023-07-13T13:20:04;9.98;;;3.90;;
35550;SDS011;21655;46.056;13.616;2023-07-13T13:22:38;8.93;;;3.88;;
35550;SDS011;21655;46.056;13.616;2023-07-13T13:25:04;11.48;;;3.90;;
35550;SDS011;21655;46.056;13.616;2023-07-13T13:27:30;11.88;;;3.97;;
35550;SDS011;21655;46.056;13.616;2023-07-13T13:29:55;12.10;;;3.90;;
35550;SDS011;21655;46.056;13.616;2023-07-13T13:32:23;11.57;;;3.95;;
35550;SDS011;21655;46.056;13.616;2023-07-13T13:34:48;10.88;;;4.13;;
35550;SDS011;21655;46.056;13.616;2023-07-13T13:37:20;11.43;;;3.50;;
35550;SDS011;21655;46.056;13.616;2023-07-13T13:39:47;10.43;;;4.07;;
35550;SDS011;21655;46.056;13.616;2023-07-13T13:42:13;13.98;;;4.05;;
35550;SDS011;21655;46.056;13.616;2023-07-13T13:44:39;9.40;;;3.40;;
35550;SDS011;21655;46.056;13.616;2023-07-13T13:47:07;11.70;;;4.47;;
35550;SDS011;21655;46.056;13.616;2023-07-13T13:49:46;11.18;;;4.18;;
35550;SDS011;21655;46.056;13.616;2023-07-13T13:52:12;10.95;;;4.25;;
35550;SDS011;21655;46.056;13.616;2023-07-13T13:54:38;14.38;;;4.28;;
35550;SDS011;21655;46.056;13.616;2023-07-13T13:57:03;13.07;;;4.65;;
35550;SDS011;21655;46.056;13.616;2023-07-13T13:59:29;11.25;;;4.55;;
35550;SDS011;21655;46.056;13.616;2023-07-13T14:01:57;13.95;;;4.43;;
35550;SDS011;21655;46.056;13.616;2023-07-13T14:04:25;12.98;;;5.13;;
35550;SDS011;21655;46.056;13.616;2023-07-13T14:06:50;17.98;;;4.45;;
35550;SDS011;21655;46.056;13.616;2023-07-13T14:09:17;10.15;;;4.25;;
35550;SDS011;21655;46.056;13.616;2023-07-13T14:11:44;16.50;;;4.70;;
35550;SDS011;21655;46.056;13.616;2023-07-13T14:14:15;14.82;;;5.03;;
35550;SDS011;21655;46.056;13.616;2023-07-13T14:16:44;16.15;;;5.43;;
35550;SDS011;21655;46.056;13.616;2023-07-13T14:19:11;17.08;;;5.40;;
35550;SDS011;21655;46.056;13.616;2023-07-13T14:21:39;15.30;;;4.78;;
35550;SDS011;21655;46.056;13.616;2023-07-13T14:24:05;13.07;;;4.80;;
35550;SDS011;21655;46.056;13.616;2023-07-13T14:26:32;11.70;;;5.30;;
35550;SDS011;21655;46.056;13.616;2023-07-13T14:29:04;12.63;;;5.22;;
35550;SDS011;21655;46.056;13.616;2023-07-13T14:31:35;13.48;;;5.50;;
35550;SDS011;21655;46.056;13.616;2023-07-13T14:34:00;14.25;;;4.97;;
35550;SDS011;21655;46.056;13.616;2023-07-13T14:36:33;18.15;;;5.45;;
35550;SDS011;21655;46.056;13.616;2023-07-13T14:39:11;14.63;;;5.43;;
35550;SDS011;21655;46.056;13.616;2023-07-13T14:41:39;18.25;;;5.53;;
35550;SDS011;21655;46.056;13.616;2023-07-13T14:44:14;17.55;;;6.28;;
35550;SDS011;21655;46.056;13.616;2023-07-13T14:46:41;15.98;;;6.15;;
35550;SDS011;21655;46.056;13.616;2023-07-13T14:51:55;18.55;;;7.28;;
35550;SDS011;21655;46.056;13.616;2023-07-13T14:54:22;17.58;;;6.50;;
35550;SDS011;21655;46.056;13.616;2023-07-13T14:56:48;17.10;;;7.00;;
35550;SDS011;21655;46.056;13.616;2023-07-13T14:59:14;13.57;;;6.72;;
35550;SDS011;21655;46.056;13.616;2023-07-13T15:01:39;19.08;;;6.82;;
35550;SDS011;21655;46.056;13.616;2023-07-13T15:04:06;18.33;;;7.18;;
35550;SDS011;21655;46.056;13.616;2023-07-13T15:06:39;20.45;;;7.40;;
35550;SDS011;21655;46.056;13.616;2023-07-13T15:09:18;24.48;;;7.03;;
35550;SDS011;21655;46.056;13.616;2023-07-13T15:11:43;17.38;;;7.18;;
35550;SDS011;21655;46.056;13.616;2023-07-13T15:14:09;16.23;;;6.82;;
35550;SDS011;21655;46.056;13.616;2023-07-13T15:16:34;17.65;;;7.47;;
35550;SDS011;21655;46.056;13.616;2023-07-13T15:18:59;18.20;;;7.90;;
35550;SDS011;21655;46.056;13.616;2023-07-13T15:21:26;25.50;;;8.00;;
35550;SDS011;21655;46.056;13.616;2023-07-13T15:23:56;24.65;;;8.20;;
35550;SDS011;21655;46.056;13.616;2023-07-13T15:26:21;23.75;;;7.60;;
35550;SDS011;21655;46.056;13.616;2023-07-13T15:28:47;18.45;;;7.88;;
35550;SDS011;21655;46.056;13.616;2023-07-13T15:31:18;17.00;;;8.40;;
35550;SDS011;21655;46.056;13.616;2023-07-13T15:33:46;16.17;;;8.27;;
35550;SDS011;21655;46.056;13.616;2023-07-13T15:36:14;23.63;;;8.90;;
35550;SDS011;21655;46.056;13.616;2023-07-13T15:38:42;24.88;;;8.55;;
35550;SDS011;21655;46.056;13.616;2023-07-13T15:41:20;25.80;;;8.55;;